createdAt,value
2023-04-15T00:00:31.686Z,89.84
2023-04-15T00:03:03.653Z,89.52
2023-04-15T00:05:35.175Z,89.84
2023-04-15T00:08:06.602Z,89.61
2023-04-15T00:10:36.502Z,89.19
2023-04-15T00:13:07.545Z,89.31
2023-04-15T00:15:39.892Z,88.88
2023-04-15T00:18:10.431Z,89.00
2023-04-15T00:20:42.369Z,89.08
2023-04-15T00:23:14.014Z,88.91
2023-04-15T00:25:45.021Z,88.69
2023-04-15T00:28:15.430Z,89.46
2023-04-15T00:30:46.457Z,88.61
2023-04-15T00:33:20.869Z,88.82
2023-04-15T00:35:52.467Z,88.81
2023-04-15T00:38:23.154Z,88.87
2023-04-15T00:40:53.648Z,88.80
2023-04-15T00:43:24.862Z,89.07
2023-04-15T00:45:57.686Z,88.73
2023-04-15T00:48:29.802Z,89.08
2023-04-15T00:51:00.716Z,89.12
2023-04-15T00:53:31.405Z,89.13
2023-04-15T00:56:02.640Z,88.88
2023-04-15T00:58:36.490Z,89.06
2023-04-15T01:01:07.651Z,89.31
2023-04-15T01:03:38.383Z,89.42
2023-04-15T01:06:09.958Z,89.58
2023-04-15T01:08:41.479Z,89.52
2023-04-15T01:11:17.228Z,89.94
2023-04-15T01:13:48.881Z,89.89
2023-04-15T01:16:23.431Z,89.98
2023-04-15T01:18:54.567Z,90.17
2023-04-15T01:21:26.935Z,90.16
2023-04-15T01:23:59.620Z,89.87
2023-04-15T01:26:32.210Z,89.88
2023-04-15T01:29:03.319Z,90.06
2023-04-15T01:31:34.357Z,90.14
2023-04-15T01:34:05.072Z,90.16
2023-04-15T01:36:38.401Z,89.82
2023-04-15T01:39:10.197Z,90.04
2023-04-15T01:41:41.508Z,90.16
2023-04-15T01:44:12.498Z,89.92
2023-04-15T01:46:43.589Z,89.68
2023-04-15T01:49:15.687Z,89.79
2023-04-15T01:51:45.915Z,90.26
2023-04-15T01:54:16.161Z,90.46
2023-04-15T01:56:47.475Z,90.28
2023-04-15T01:59:18.339Z,89.78
2023-04-15T02:01:50.155Z,89.70
2023-04-15T02:04:20.376Z,90.44
2023-04-15T02:06:50.623Z,90.48
2023-04-15T02:09:22.535Z,90.27
2023-04-15T02:11:56.183Z,90.39
2023-04-15T02:14:27.225Z,90.48
2023-04-15T02:16:57.725Z,90.43
2023-04-15T02:19:28.183Z,90.28
2023-04-15T02:22:02.891Z,90.37
2023-04-15T02:24:33.011Z,90.72
2023-04-15T02:27:04.240Z,90.82
2023-04-15T02:29:35.568Z,91.30
2023-04-15T02:32:06.747Z,91.47
2023-04-15T02:34:38.821Z,91.89
2023-04-15T02:37:10.393Z,92.24
2023-04-15T02:39:41.528Z,92.23
2023-04-15T02:42:14.708Z,92.72
2023-04-15T02:44:45.518Z,93.25
2023-04-15T02:47:16.083Z,93.61
2023-04-15T02:49:46.692Z,93.23
2023-04-15T02:52:18.549Z,93.22
2023-04-15T02:54:48.853Z,93.10
2023-04-15T02:57:18.901Z,93.20
2023-04-15T02:59:51.295Z,93.20
2023-04-15T03:02:21.832Z,93.41
2023-04-15T03:04:53.275Z,93.02
2023-04-15T03:07:23.329Z,92.80
2023-04-15T03:09:53.819Z,92.89
2023-04-15T03:12:24.605Z,93.19
2023-04-15T03:14:58.460Z,93.40
2023-04-15T03:17:36.248Z,93.64
2023-04-15T03:20:07.897Z,93.70
2023-04-15T03:22:38.441Z,93.80
2023-04-15T03:25:09.367Z,93.49
2023-04-15T03:27:41.023Z,93.58
2023-04-15T03:30:12.275Z,93.73
2023-04-15T03:32:43.768Z,93.93
2023-04-15T03:35:14.773Z,93.77
2023-04-15T03:37:45.187Z,93.16
2023-04-15T03:40:15.118Z,93.15
2023-04-15T03:42:45.189Z,93.07
2023-04-15T03:45:15.064Z,92.40
2023-04-15T03:47:46.040Z,92.51
2023-04-15T03:50:17.905Z,92.27
2023-04-15T03:52:49.160Z,92.58
2023-04-15T03:55:22.619Z,92.61
2023-04-15T03:57:53.162Z,92.57
2023-04-15T04:00:24.681Z,92.15
2023-04-15T04:02:55.315Z,92.37
2023-04-15T04:05:25.480Z,92.52
2023-04-15T04:07:55.780Z,92.71
2023-04-15T04:10:27.033Z,92.75
2023-04-15T04:12:58.042Z,92.82
2023-04-15T04:15:28.284Z,92.68
2023-04-15T04:17:59.028Z,92.98
2023-04-15T04:20:33.911Z,93.14
2023-04-15T04:23:03.969Z,93.13
2023-04-15T04:25:34.272Z,93.41
2023-04-15T04:28:05.021Z,93.48
2023-04-15T04:30:37.740Z,93.98
2023-04-15T04:33:09.064Z,94.22
2023-04-15T04:35:39.268Z,94.18
2023-04-15T04:38:09.573Z,94.01
2023-04-15T04:40:40.770Z,94.53
2023-04-15T04:43:11.165Z,94.38
2023-04-15T04:45:41.657Z,94.72
2023-04-15T04:48:12.033Z,94.61
2023-04-15T04:50:43.131Z,94.41
2023-04-15T04:53:13.198Z,94.44
2023-04-15T04:55:43.604Z,94.49
2023-04-15T04:58:14.590Z,93.98
2023-04-15T05:00:44.908Z,94.06
2023-04-15T05:03:15.218Z,93.98
2023-04-15T05:05:45.317Z,94.13
2023-04-15T05:08:16.650Z,94.43
2023-04-15T05:10:46.942Z,94.17
2023-04-15T05:13:17.215Z,94.62
2023-04-15T05:15:47.041Z,94.69
2023-04-15T05:18:17.056Z,94.85
2023-04-15T05:20:47.550Z,94.90
2023-04-15T05:23:19.219Z,94.83
2023-04-15T05:25:49.177Z,94.79
2023-04-15T05:28:19.053Z,94.81
2023-04-15T05:30:49.422Z,94.89
2023-04-15T05:33:20.409Z,94.94
2023-04-15T05:35:50.896Z,94.99
2023-04-15T05:38:21.032Z,94.88
2023-04-15T05:40:50.770Z,94.86
2023-04-15T05:43:21.189Z,94.87
2023-04-15T05:45:51.501Z,94.96
2023-04-15T05:48:22.088Z,95.09
2023-04-15T05:50:52.215Z,95.14
2023-04-15T05:53:22.853Z,95.15
2023-04-15T05:55:53.544Z,95.37
2023-04-15T05:58:23.747Z,95.32
2023-04-15T06:00:54.294Z,95.21
2023-04-15T06:03:25.049Z,94.93
2023-04-15T06:05:55.660Z,94.67
2023-04-15T06:08:26.087Z,94.65
2023-04-15T06:10:56.528Z,94.14
2023-04-15T06:13:26.435Z,93.96
2023-04-15T06:15:57.460Z,93.72
2023-04-15T06:18:28.159Z,93.58
2023-04-15T06:20:58.633Z,93.51
2023-04-15T06:23:28.454Z,93.62
2023-04-15T06:25:59.043Z,93.77
2023-04-15T06:28:29.455Z,93.86
2023-04-15T06:31:00.186Z,94.18
2023-04-15T06:33:30.365Z,94.37
2023-04-15T06:36:00.238Z,94.57
2023-04-15T06:38:30.439Z,94.94
2023-04-15T06:41:00.772Z,95.19
2023-04-15T06:43:32.681Z,95.68
2023-04-15T06:46:02.531Z,96.05
2023-04-15T06:48:33.231Z,96.25
2023-04-15T06:51:05.580Z,96.42
2023-04-15T06:53:37.142Z,96.46
2023-04-15T06:56:07.473Z,96.55
2023-04-15T06:58:37.520Z,96.83
2023-04-15T07:01:08.900Z,97.11
2023-04-15T07:03:40.302Z,97.58
2023-04-15T07:06:13.196Z,97.78
2023-04-15T07:08:43.263Z,98.11
2023-04-15T07:11:13.460Z,98.13
2023-04-15T07:13:43.778Z,98.52
2023-04-15T07:16:13.934Z,98.36
2023-04-15T07:18:44.657Z,98.37
2023-04-15T07:21:14.405Z,98.55
2023-04-15T07:23:44.547Z,98.78
2023-04-15T07:26:15.412Z,98.75
2023-04-15T07:28:48.329Z,98.78
2023-04-15T07:31:18.670Z,98.71
2023-04-15T07:33:48.412Z,98.66
2023-04-15T07:36:18.920Z,98.73
2023-04-15T07:38:49.583Z,98.81
2023-04-15T07:41:21.603Z,98.87
2023-04-15T07:43:51.817Z,98.92
2023-04-15T07:46:21.910Z,99.05
2023-04-15T07:48:52.454Z,99.14
2023-04-15T07:51:24.049Z,99.23
2023-04-15T07:53:54.658Z,99.25
2023-04-15T07:56:24.426Z,99.21
2023-04-15T07:58:55.716Z,99.29
2023-04-15T08:01:26.481Z,99.41
2023-04-15T08:03:57.183Z,99.37
2023-04-15T08:06:28.556Z,99.47
2023-04-15T08:08:59.205Z,99.38
2023-04-15T08:11:29.953Z,99.45
2023-04-15T08:14:00.870Z,99.43
2023-04-15T08:16:31.107Z,99.49
2023-04-15T08:19:01.703Z,99.55
2023-04-15T08:21:33.634Z,99.44
2023-04-15T08:24:04.468Z,99.42
2023-04-15T08:26:34.402Z,99.45
2023-04-15T08:29:05.170Z,99.44
2023-04-15T08:31:35.684Z,99.51
2023-04-15T08:34:06.055Z,99.58
2023-04-15T08:36:35.762Z,99.58
2023-04-15T08:39:05.974Z,99.70
2023-04-15T08:41:42.969Z,99.75
2023-04-15T08:44:14.244Z,99.81
2023-04-15T08:46:44.525Z,99.79
2023-04-15T08:49:14.931Z,99.67
2023-04-15T08:51:47.428Z,99.63
2023-04-15T08:54:18.518Z,99.60
2023-04-15T08:56:48.827Z,99.77
2023-04-15T08:59:19.429Z,99.79
2023-04-15T09:01:50.049Z,99.85
2023-04-15T09:04:21.322Z,99.96
2023-04-15T09:06:51.956Z,99.99
2023-04-15T09:09:22.204Z,99.95
2023-04-15T09:11:52.744Z,99.99
2023-04-15T09:14:24.056Z,99.95
2023-04-15T09:17:05.580Z,99.99
2023-04-15T09:19:35.696Z,99.99
2023-04-15T09:22:05.666Z,99.99
2023-04-15T09:24:39.930Z,99.99
2023-04-15T09:27:11.031Z,99.99
2023-04-15T09:29:44.161Z,99.99
2023-04-15T09:32:17.561Z,99.99
2023-04-15T09:34:47.918Z,99.99
2023-04-15T09:37:32.054Z,99.99
2023-04-15T09:40:03.655Z,99.99
2023-04-15T09:42:33.698Z,99.99
2023-04-15T09:45:16.058Z,99.99
2023-04-15T09:47:47.142Z,99.99
2023-04-15T09:50:19.679Z,99.99
2023-04-15T09:52:49.882Z,99.99
2023-04-15T09:55:20.370Z,99.99
2023-04-15T09:57:50.797Z,99.99
2023-04-15T10:00:22.049Z,99.99
2023-04-15T10:02:52.919Z,99.99
2023-04-15T10:05:24.562Z,99.99
2023-04-15T10:07:56.065Z,99.99
2023-04-15T10:10:27.560Z,99.99
2023-04-15T10:12:58.259Z,99.99
2023-04-15T10:15:31.313Z,99.98
2023-04-15T10:18:02.970Z,99.98
2023-04-15T10:20:33.490Z,99.83
2023-04-15T10:23:04.011Z,99.82
2023-04-15T10:25:35.724Z,99.79
2023-04-15T10:28:07.835Z,99.77
2023-04-15T10:30:39.575Z,99.59
2023-04-15T10:33:12.557Z,99.31
2023-04-15T10:35:43.839Z,98.94
2023-04-15T10:38:42.251Z,98.98
2023-04-15T10:41:20.196Z,98.25
2023-04-15T10:43:56.268Z,97.88
2023-04-15T10:46:41.791Z,97.51
2023-04-15T10:49:26.436Z,97.21
2023-04-15T10:52:01.158Z,96.38
2023-04-15T10:54:32.190Z,95.22
2023-04-15T10:57:05.468Z,94.70
2023-04-15T10:59:39.665Z,94.01
2023-04-15T11:02:11.003Z,93.64
2023-04-15T11:05:00.691Z,93.17
2023-04-15T11:07:49.716Z,91.89
2023-04-15T11:10:19.899Z,91.60
2023-04-15T11:13:00.134Z,90.38
2023-04-15T11:15:46.062Z,84.24
2023-04-15T11:18:23.431Z,79.38
2023-04-15T11:21:02.409Z,71.21
2023-04-15T11:23:36.240Z,72.80
2023-04-15T11:26:11.851Z,79.13
2023-04-15T11:28:44.122Z,82.76
2023-04-15T11:31:21.064Z,83.87
2023-04-15T11:34:04.085Z,85.68
2023-04-15T11:36:34.626Z,83.85
2023-04-15T11:39:05.208Z,83.56
2023-04-15T11:41:37.552Z,84.46
2023-04-15T11:44:20.479Z,85.67
2023-04-15T11:46:51.963Z,86.91
2023-04-15T11:49:30.013Z,87.06
2023-04-15T11:52:00.460Z,85.94
2023-04-15T11:54:31.070Z,85.95
2023-04-15T11:57:03.093Z,86.21
2023-04-15T11:59:46.043Z,86.96
2023-04-15T12:02:16.819Z,86.69
2023-04-15T12:04:48.524Z,85.25
2023-04-15T12:07:20.727Z,85.69
2023-04-15T12:09:57.910Z,85.54
2023-04-15T12:12:32.073Z,84.39
2023-04-15T12:15:03.033Z,83.92
2023-04-15T12:17:51.503Z,85.08
2023-04-15T12:20:28.766Z,83.34
2023-04-15T12:23:08.246Z,82.73
2023-04-15T12:25:38.875Z,78.58
2023-04-15T12:28:19.377Z,78.67
2023-04-15T12:30:53.696Z,80.15
2023-04-15T12:33:24.262Z,79.20
2023-04-15T12:35:54.684Z,79.62
2023-04-15T12:38:25.541Z,80.03
2023-04-15T12:40:55.993Z,80.23
2023-04-15T12:43:25.751Z,80.52
2023-04-15T12:45:55.870Z,79.07
2023-04-15T12:48:26.578Z,77.87
2023-04-15T12:50:57.388Z,77.88
2023-04-15T12:53:27.560Z,77.34
2023-04-15T12:55:57.621Z,72.97
2023-04-15T12:58:31.295Z,74.68
2023-04-15T13:01:02.923Z,70.71
2023-04-15T13:03:33.635Z,70.67
2023-04-15T13:06:06.041Z,71.67
2023-04-15T13:08:38.553Z,70.57
2023-04-15T13:11:12.788Z,64.41
2023-04-15T13:13:42.879Z,64.95
2023-04-15T13:16:13.639Z,70.84
2023-04-15T13:18:44.623Z,73.05
2023-04-15T13:21:15.415Z,74.00
2023-04-15T13:23:46.129Z,75.84
2023-04-15T13:26:16.004Z,73.99
2023-04-15T13:28:45.871Z,70.42
2023-04-15T13:31:16.678Z,68.28
2023-04-15T13:33:47.187Z,65.25
2023-04-15T13:36:17.918Z,68.03
2023-04-15T13:38:50.479Z,67.27
2023-04-15T13:41:22.414Z,68.52
2023-04-15T13:43:52.781Z,68.64
2023-04-15T13:46:23.429Z,69.04
2023-04-15T13:48:54.585Z,71.03
2023-04-15T13:51:24.525Z,70.56
2023-04-15T13:53:55.742Z,73.40
2023-04-15T13:56:27.273Z,74.05
2023-04-15T13:59:00.217Z,76.10
2023-04-15T14:01:30.863Z,77.15
2023-04-15T14:04:01.153Z,74.67
2023-04-15T14:06:33.397Z,77.08
2023-04-15T14:09:05.177Z,74.83
2023-04-15T14:11:38.172Z,72.51
2023-04-15T14:14:08.339Z,69.40
2023-04-15T14:16:38.265Z,70.57
2023-04-15T14:19:08.343Z,71.25
2023-04-15T14:21:38.999Z,72.53
2023-04-15T14:24:10.031Z,71.89
2023-04-15T14:26:39.862Z,72.48
2023-04-15T14:29:09.941Z,72.71
2023-04-15T14:31:41.788Z,72.47
2023-04-15T14:34:32.758Z,69.93
2023-04-15T14:37:02.675Z,71.26
2023-04-15T14:39:33.058Z,70.95
2023-04-15T14:42:03.723Z,70.91
2023-04-15T14:44:33.984Z,69.69
2023-04-15T14:47:05.229Z,70.00
2023-04-15T14:49:35.345Z,69.46
2023-04-15T14:52:05.377Z,67.82
2023-04-15T14:54:36.285Z,70.12
2023-04-15T14:57:06.535Z,68.04
2023-04-15T14:59:37.674Z,68.66
2023-04-15T15:02:07.941Z,70.12
2023-04-15T15:04:38.655Z,68.57
2023-04-15T15:07:09.013Z,70.22
2023-04-15T15:09:41.248Z,68.90
2023-04-15T15:12:14.487Z,67.24
2023-04-15T15:14:44.953Z,68.64
2023-04-15T15:17:14.727Z,68.90
2023-04-15T15:19:45.509Z,68.95
2023-04-15T15:22:15.591Z,69.60
2023-04-15T15:24:45.985Z,70.33
2023-04-15T15:27:15.838Z,68.77
2023-04-15T15:29:46.636Z,69.55
2023-04-15T15:32:16.796Z,69.90
2023-04-15T15:34:46.701Z,70.31
2023-04-15T15:37:16.759Z,67.18
2023-04-15T15:39:47.266Z,68.29
2023-04-15T15:42:18.246Z,68.98
2023-04-15T15:44:50.459Z,68.42
2023-04-15T15:47:21.714Z,71.02
2023-04-15T15:49:51.912Z,70.85
2023-04-15T15:52:22.204Z,71.28
2023-04-15T15:54:53.410Z,72.27
2023-04-15T15:57:23.790Z,70.68
2023-04-15T16:00:04.930Z,71.40
2023-04-15T16:05:15.712Z,72.04
2023-04-15T16:07:46.256Z,71.34
2023-04-15T16:10:20.220Z,70.51
2023-04-15T16:12:50.973Z,68.88
2023-04-15T16:15:21.833Z,66.46
2023-04-15T16:17:53.359Z,65.95
2023-04-15T16:20:23.496Z,67.39
2023-04-15T16:22:53.640Z,65.46
2023-04-15T16:25:25.254Z,66.89
2023-04-15T16:28:03.467Z,67.13
2023-04-15T16:30:39.942Z,69.94
2023-04-15T16:33:11.563Z,68.26
2023-04-15T16:35:43.132Z,70.04
2023-04-15T16:38:13.567Z,71.88
2023-04-15T16:40:43.342Z,71.71
2023-04-15T16:43:14.058Z,72.27
2023-04-15T16:45:46.437Z,72.56
2023-04-15T16:48:17.015Z,73.94
2023-04-15T16:50:47.487Z,73.05
2023-04-15T16:53:18.039Z,74.02
2023-04-15T16:55:48.515Z,74.61
2023-04-15T16:58:20.434Z,75.36
2023-04-15T17:00:53.194Z,76.56
2023-04-15T17:03:23.853Z,76.12
2023-04-15T17:05:54.538Z,75.12
2023-04-15T17:08:24.772Z,77.39
2023-04-15T17:10:56.851Z,74.95
2023-04-15T17:13:27.913Z,76.98
2023-04-15T17:15:58.074Z,76.83
2023-04-15T17:18:29.439Z,79.69
2023-04-15T17:21:00.371Z,78.24
2023-04-15T17:23:30.158Z,79.75
2023-04-15T17:26:00.966Z,77.53
2023-04-15T17:28:32.284Z,78.66
2023-04-15T17:31:03.900Z,79.67
2023-04-15T17:34:01.051Z,78.75
2023-04-15T17:36:24.569Z,77.55
2023-04-15T17:38:56.247Z,79.36
2023-04-15T17:41:28.295Z,81.43
2023-04-15T17:43:59.162Z,81.04
2023-04-15T17:46:32.230Z,79.55
2023-04-15T17:49:03.346Z,79.01
2023-04-15T17:51:34.280Z,81.72
2023-04-15T17:54:10.765Z,81.51
2023-04-15T17:56:40.990Z,81.70
2023-04-15T17:59:11.048Z,83.62
2023-04-15T18:01:43.638Z,82.55
2023-04-15T18:04:15.926Z,81.54
2023-04-15T18:06:46.799Z,81.73
2023-04-15T18:09:16.785Z,81.91
2023-04-15T18:11:50.347Z,83.19
2023-04-15T18:14:33.601Z,82.92
2023-04-15T18:17:06.203Z,80.41
2023-04-15T18:19:36.183Z,82.02
2023-04-15T18:22:06.033Z,81.20
2023-04-15T18:24:37.172Z,79.89
2023-04-15T18:27:07.558Z,80.66
2023-04-15T18:29:38.210Z,80.51
2023-04-15T18:32:08.871Z,80.66
2023-04-15T18:34:39.012Z,81.67
2023-04-15T18:37:10.127Z,82.20
2023-04-15T18:39:40.843Z,82.09
2023-04-15T18:42:11.049Z,82.72
2023-04-15T18:44:40.938Z,82.79
2023-04-15T18:47:12.118Z,82.11
2023-04-15T18:49:43.828Z,81.99
2023-04-15T18:52:15.475Z,81.89
2023-04-15T18:54:46.616Z,81.29
2023-04-15T18:57:22.697Z,82.31
2023-04-15T18:59:59.780Z,82.53
2023-04-15T19:02:30.606Z,82.33
2023-04-15T19:05:00.572Z,82.90
2023-04-15T19:07:32.319Z,83.09
2023-04-15T19:10:03.859Z,83.38
2023-04-15T19:12:35.118Z,84.05
2023-04-15T19:15:06.068Z,84.50
2023-04-15T19:17:37.353Z,84.88
2023-04-15T19:20:09.089Z,85.17
2023-04-15T19:22:39.540Z,85.37
2023-04-15T19:25:09.923Z,85.45
2023-04-15T19:27:40.869Z,86.19
2023-04-15T19:30:12.169Z,86.38
2023-04-15T19:32:43.397Z,86.22
2023-04-15T19:35:13.394Z,86.58
2023-04-15T19:37:43.400Z,87.34
2023-04-15T19:40:13.902Z,87.21
2023-04-15T19:42:44.791Z,87.40
2023-04-15T19:45:18.022Z,87.62
2023-04-15T19:47:48.385Z,88.37
2023-04-15T19:50:18.666Z,88.63
2023-04-15T19:52:48.993Z,88.90
2023-04-15T19:55:19.343Z,89.20
2023-04-15T19:57:49.573Z,89.51
2023-04-15T20:00:19.411Z,89.87
2023-04-15T20:02:49.570Z,89.91
2023-04-15T20:05:20.030Z,90.04
2023-04-15T20:07:53.130Z,90.74
2023-04-15T20:10:23.978Z,91.36
2023-04-15T20:12:54.169Z,91.92
2023-04-15T20:15:24.844Z,92.40
2023-04-15T20:17:55.967Z,92.45
2023-04-15T20:20:26.122Z,93.62
2023-04-15T20:22:55.915Z,94.15
2023-04-15T20:25:26.729Z,94.54
2023-04-15T20:27:59.617Z,94.13
2023-04-15T20:30:31.817Z,95.24
2023-04-15T20:33:01.798Z,95.62
2023-04-15T20:35:32.384Z,95.91
2023-04-15T20:38:05.168Z,95.63
2023-04-15T20:40:36.374Z,95.34
2023-04-15T20:43:06.525Z,95.41
2023-04-15T20:45:36.328Z,95.30
2023-04-15T20:48:07.854Z,95.49
2023-04-15T20:50:38.290Z,95.25
2023-04-15T20:53:08.581Z,95.45
2023-04-15T20:55:39.048Z,95.87
2023-04-15T20:58:09.122Z,95.69
2023-04-15T21:00:41.135Z,95.68
2023-04-15T21:03:13.059Z,95.67
2023-04-15T21:05:45.049Z,95.61
2023-04-15T21:08:14.932Z,96.03
2023-04-15T21:10:44.798Z,95.89
2023-04-15T21:13:18.805Z,96.01
2023-04-15T21:15:55.688Z,96.32
2023-04-15T21:18:38.361Z,96.61
2023-04-15T21:21:08.322Z,96.82
2023-04-15T21:23:38.283Z,97.11
2023-04-15T21:26:09.557Z,97.48
2023-04-15T21:31:53.921Z,97.82
2023-04-15T21:34:25.588Z,98.01
2023-04-15T21:36:56.139Z,98.23
2023-04-15T21:39:26.521Z,98.35
2023-04-15T21:41:59.114Z,98.37
2023-04-15T21:44:30.697Z,98.31
2023-04-15T21:47:01.210Z,98.26
2023-04-15T21:49:32.597Z,98.37
2023-04-15T21:52:03.505Z,97.76
2023-04-15T21:54:34.619Z,97.49
2023-04-15T21:57:05.785Z,96.90
2023-04-15T21:59:36.410Z,96.33
2023-04-15T22:02:07.436Z,95.75
2023-04-15T22:04:37.987Z,95.52
2023-04-15T22:07:11.866Z,95.61
2023-04-15T22:09:43.287Z,95.85
2023-04-15T22:12:14.191Z,95.78
2023-04-15T22:14:44.549Z,95.68
2023-04-15T22:17:15.188Z,95.75
2023-04-15T22:19:46.839Z,95.59
2023-04-15T22:22:18.609Z,95.63
2023-04-15T22:24:51.326Z,95.86
2023-04-15T22:27:22.098Z,95.97
2023-04-15T22:29:53.018Z,96.02
2023-04-15T22:32:23.841Z,96.01
2023-04-15T22:34:55.275Z,95.93
2023-04-15T22:37:27.672Z,96.19
2023-04-15T22:40:03.392Z,96.28
2023-04-15T22:42:34.527Z,96.69
2023-04-15T22:45:05.824Z,97.32
2023-04-15T22:47:36.443Z,97.37
2023-04-15T22:50:08.887Z,96.95
2023-04-15T22:52:40.428Z,97.29
2023-04-15T22:55:12.028Z,97.56
2023-04-15T22:57:43.006Z,97.72
2023-04-15T23:00:14.921Z,97.66
2023-04-15T23:02:46.433Z,97.76
2023-04-15T23:05:19.613Z,97.89
2023-04-15T23:07:53.699Z,98.00
2023-04-15T23:10:25.371Z,98.07
2023-04-15T23:12:57.949Z,98.48
2023-04-15T23:15:30.731Z,98.64
2023-04-15T23:18:03.587Z,98.58
2023-04-15T23:20:36.094Z,98.39
2023-04-15T23:23:07.672Z,98.27
2023-04-15T23:25:43.656Z,98.48
2023-04-15T23:28:15.053Z,98.31
2023-04-15T23:30:46.325Z,98.28
2023-04-15T23:33:19.105Z,98.33
2023-04-15T23:35:51.633Z,98.54
2023-04-15T23:38:22.823Z,98.55
2023-04-15T23:40:55.458Z,98.51
2023-04-15T23:43:30.351Z,98.63
2023-04-15T23:46:02.326Z,98.53
2023-04-15T23:48:34.121Z,98.53
2023-04-15T23:51:08.913Z,98.77
2023-04-15T23:53:39.741Z,98.95
2023-04-15T23:56:10.678Z,99.20
2023-04-15T23:58:41.583Z,99.20
